Nurata, Uzbekistan
Current Conditions -  °F | °C
As of 4:00 AM on Thursday 18 Dec 2014 (Local Time) from UTSA Reporting Station
Smoke Smoke  
Wind Chill: 23°   Ceiling: Unl
Heat Index: 30°   Visibility: 1.3mi
Dew Point: 25°   Wind: 8mph
Humidity: 80%   Direction: 100°E
Pressure: 30.27"   Gusts: NA
Location:  40.56°N, 65.68°E
Report Text: UTSA 172300Z 10007KT 2100 BR FU NSC M01/M04 Q1025 R07/CLRD70NOSIG
Loading
Personal Weather Stations






























Interactive Weather Map New forecast layout! Learn more

10-Day Weather Forecast

Advertisements
Track Severe Weather on mobile